sensor_id;sensor_type;location;lat;lon;timestamp;P1;durP1;ratioP1;P2;durP2;ratioP2
77359;SDS011;66426;51.454;7.266;2023-05-27T00:00:21;14.57;;;3.72;;
77359;SDS011;66426;51.454;7.266;2023-05-27T00:01:22;11.32;;;2.92;;
77359;SDS011;66426;51.454;7.266;2023-05-27T00:02:22;11.75;;;3.22;;
77359;SDS011;66426;51.454;7.266;2023-05-27T00:03:24;12.25;;;3.15;;
77359;SDS011;66426;51.454;7.266;2023-05-27T00:04:25;12.88;;;3.10;;
77359;SDS011;66426;51.454;7.266;2023-05-27T00:05:26;10.75;;;3.33;;
77359;SDS011;66426;51.454;7.266;2023-05-27T00:06:27;11.77;;;4.00;;
77359;SDS011;66426;51.454;7.266;2023-05-27T00:07:27;9.55;;;3.30;;
77359;SDS011;66426;51.454;7.266;2023-05-27T00:08:28;12.85;;;3.10;;
77359;SDS011;66426;51.454;7.266;2023-05-27T00:09:29;11.57;;;2.97;;
77359;SDS011;66426;51.454;7.266;2023-05-27T00:10:30;11.48;;;3.50;;
77359;SDS011;66426;51.454;7.266;2023-05-27T00:11:31;8.55;;;3.55;;
77359;SDS011;66426;51.454;7.266;2023-05-27T00:12:34;12.30;;;3.38;;
77359;SDS011;66426;51.454;7.266;2023-05-27T00:13:35;9.55;;;3.25;;
77359;SDS011;66426;51.454;7.266;2023-05-27T00:14:35;8.75;;;2.97;;
77359;SDS011;66426;51.454;7.266;2023-05-27T00:15:37;11.27;;;3.17;;
77359;SDS011;66426;51.454;7.266;2023-05-27T00:16:38;20.60;;;4.00;;
77359;SDS011;66426;51.454;7.266;2023-05-27T00:17:39;7.55;;;3.28;;
77359;SDS011;66426;51.454;7.266;2023-05-27T00:18:42;12.93;;;3.38;;
77359;SDS011;66426;51.454;7.266;2023-05-27T00:19:43;13.10;;;3.60;;
77359;SDS011;66426;51.454;7.266;2023-05-27T00:20:45;9.55;;;3.17;;
77359;SDS011;66426;51.454;7.266;2023-05-27T00:21:46;10.88;;;3.58;;
77359;SDS011;66426;51.454;7.266;2023-05-27T00:22:47;11.85;;;3.47;;
77359;SDS011;66426;51.454;7.266;2023-05-27T00:23:50;11.52;;;3.20;;
77359;SDS011;66426;51.454;7.266;2023-05-27T00:24:52;12.15;;;3.30;;
77359;SDS011;66426;51.454;7.266;2023-05-27T00:25:53;16.83;;;4.03;;
77359;SDS011;66426;51.454;7.266;2023-05-27T00:26:54;10.10;;;3.33;;
77359;SDS011;66426;51.454;7.266;2023-05-27T00:27:56;14.00;;;3.92;;
77359;SDS011;66426;51.454;7.266;2023-05-27T00:28:57;9.23;;;2.95;;
77359;SDS011;66426;51.454;7.266;2023-05-27T00:29:58;12.30;;;3.60;;
77359;SDS011;66426;51.454;7.266;2023-05-27T00:30:59;17.48;;;4.00;;
77359;SDS011;66426;51.454;7.266;2023-05-27T00:32:00;10.35;;;3.00;;
77359;SDS011;66426;51.454;7.266;2023-05-27T00:33:04;12.80;;;3.50;;
77359;SDS011;66426;51.454;7.266;2023-05-27T00:34:05;10.50;;;3.30;;
77359;SDS011;66426;51.454;7.266;2023-05-27T00:35:06;7.13;;;2.88;;
77359;SDS011;66426;51.454;7.266;2023-05-27T00:36:08;12.02;;;3.30;;
77359;SDS011;66426;51.454;7.266;2023-05-27T00:37:09;11.98;;;3.40;;
77359;SDS011;66426;51.454;7.266;2023-05-27T00:38:10;10.65;;;3.30;;
77359;SDS011;66426;51.454;7.266;2023-05-27T00:39:11;10.98;;;3.50;;
77359;SDS011;66426;51.454;7.266;2023-05-27T00:40:11;19.02;;;3.88;;
77359;SDS011;66426;51.454;7.266;2023-05-27T00:41:15;14.40;;;3.78;;
77359;SDS011;66426;51.454;7.266;2023-05-27T00:42:16;11.68;;;3.35;;
77359;SDS011;66426;51.454;7.266;2023-05-27T00:43:18;13.05;;;3.65;;
77359;SDS011;66426;51.454;7.266;2023-05-27T00:44:19;12.25;;;3.67;;
77359;SDS011;66426;51.454;7.266;2023-05-27T00:45:20;13.90;;;3.67;;
77359;SDS011;66426;51.454;7.266;2023-05-27T00:46:21;10.63;;;3.38;;
77359;SDS011;66426;51.454;7.266;2023-05-27T00:47:22;9.77;;;3.58;;
77359;SDS011;66426;51.454;7.266;2023-05-27T00:48:27;12.57;;;3.38;;
77359;SDS011;66426;51.454;7.266;2023-05-27T00:49:28;10.20;;;3.45;;
77359;SDS011;66426;51.454;7.266;2023-05-27T00:50:29;10.88;;;3.33;;
77359;SDS011;66426;51.454;7.266;2023-05-27T00:51:30;11.68;;;3.47;;
77359;SDS011;66426;51.454;7.266;2023-05-27T00:52:31;11.30;;;3.33;;
77359;SDS011;66426;51.454;7.266;2023-05-27T00:53:34;11.68;;;3.63;;
77359;SDS011;66426;51.454;7.266;2023-05-27T00:54:39;13.52;;;3.75;;
77359;SDS011;66426;51.454;7.266;2023-05-27T00:55:41;11.40;;;3.35;;
77359;SDS011;66426;51.454;7.266;2023-05-27T00:56:42;11.90;;;4.03;;
77359;SDS011;66426;51.454;7.266;2023-05-27T00:57:42;8.85;;;3.08;;
77359;SDS011;66426;51.454;7.266;2023-05-27T00:58:45;13.05;;;3.20;;
77359;SDS011;66426;51.454;7.266;2023-05-27T00:59:47;12.00;;;3.10;;
77359;SDS011;66426;51.454;7.266;2023-05-27T01:00:48;12.15;;;3.47;;
77359;SDS011;66426;51.454;7.266;2023-05-27T01:01:49;14.45;;;3.20;;
77359;SDS011;66426;51.454;7.266;2023-05-27T01:02:50;12.80;;;3.53;;
77359;SDS011;66426;51.454;7.266;2023-05-27T01:03:51;15.45;;;4.10;;
77359;SDS011;66426;51.454;7.266;2023-05-27T01:04:53;12.50;;;4.05;;
77359;SDS011;66426;51.454;7.266;2023-05-27T01:05:54;11.95;;;3.17;;
77359;SDS011;66426;51.454;7.266;2023-05-27T01:07:03;10.45;;;3.08;;
77359;SDS011;66426;51.454;7.266;2023-05-27T01:08:13;19.52;;;4.28;;
77359;SDS011;66426;51.454;7.266;2023-05-27T01:09:24;9.43;;;3.25;;
77359;SDS011;66426;51.454;7.266;2023-05-27T01:10:32;8.90;;;3.35;;
77359;SDS011;66426;51.454;7.266;2023-05-27T01:11:38;14.20;;;3.53;;
77359;SDS011;66426;51.454;7.266;2023-05-27T01:12:44;11.55;;;3.58;;
77359;SDS011;66426;51.454;7.266;2023-05-27T01:13:54;11.88;;;3.40;;
77359;SDS011;66426;51.454;7.266;2023-05-27T01:14:59;14.32;;;3.40;;
77359;SDS011;66426;51.454;7.266;2023-05-27T01:16:05;11.02;;;3.58;;
77359;SDS011;66426;51.454;7.266;2023-05-27T01:17:11;13.85;;;3.08;;
77359;SDS011;66426;51.454;7.266;2023-05-27T01:18:12;11.30;;;3.30;;
77359;SDS011;66426;51.454;7.266;2023-05-27T01:19:19;12.75;;;4.07;;
77359;SDS011;66426;51.454;7.266;2023-05-27T01:20:30;11.20;;;3.30;;
77359;SDS011;66426;51.454;7.266;2023-05-27T01:21:33;12.13;;;3.30;;
77359;SDS011;66426;51.454;7.266;2023-05-27T01:22:41;8.35;;;3.35;;
77359;SDS011;66426;51.454;7.266;2023-05-27T01:23:42;12.07;;;3.40;;
77359;SDS011;66426;51.454;7.266;2023-05-27T01:24:43;10.57;;;3.10;;
77359;SDS011;66426;51.454;7.266;2023-05-27T01:25:44;16.30;;;3.95;;
77359;SDS011;66426;51.454;7.266;2023-05-27T01:26:45;12.20;;;3.70;;
77359;SDS011;66426;51.454;7.266;2023-05-27T01:27:46;12.00;;;3.67;;
77359;SDS011;66426;51.454;7.266;2023-05-27T01:28:47;11.20;;;3.20;;
77359;SDS011;66426;51.454;7.266;2023-05-27T01:29:48;10.20;;;3.28;;
77359;SDS011;66426;51.454;7.266;2023-05-27T01:30:49;9.00;;;3.10;;
77359;SDS011;66426;51.454;7.266;2023-05-27T01:31:56;10.10;;;3.38;;
77359;SDS011;66426;51.454;7.266;2023-05-27T01:33:02;13.52;;;3.92;;
77359;SDS011;66426;51.454;7.266;2023-05-27T01:34:08;11.13;;;2.80;;
77359;SDS011;66426;51.454;7.266;2023-05-27T01:35:17;11.23;;;3.17;;
77359;SDS011;66426;51.454;7.266;2023-05-27T01:36:26;13.95;;;3.53;;
77359;SDS011;66426;51.454;7.266;2023-05-27T01:37:30;10.48;;;3.58;;
77359;SDS011;66426;51.454;7.266;2023-05-27T01:38:35;15.25;;;3.47;;
77359;SDS011;66426;51.454;7.266;2023-05-27T01:39:40;11.15;;;3.05;;
77359;SDS011;66426;51.454;7.266;2023-05-27T01:40:43;18.50;;;3.85;;
77359;SDS011;66426;51.454;7.266;2023-05-27T01:41:45;13.07;;;3.70;;
77359;SDS011;66426;51.454;7.266;2023-05-27T01:42:47;9.25;;;3.00;;
77359;SDS011;66426;51.454;7.266;2023-05-27T01:43:48;12.30;;;3.17;;
77359;SDS011;66426;51.454;7.266;2023-05-27T01:44:50;12.43;;;3.55;;
77359;SDS011;66426;51.454;7.266;2023-05-27T01:45:51;10.27;;;3.67;;
77359;SDS011;66426;51.454;7.266;2023-05-27T01:46:57;12.40;;;3.40;;
77359;SDS011;66426;51.454;7.266;2023-05-27T01:47:58;8.57;;;3.40;;
77359;SDS011;66426;51.454;7.266;2023-05-27T01:48:59;9.75;;;3.50;;
77359;SDS011;66426;51.454;7.266;2023-05-27T01:50:00;12.85;;;3.85;;
77359;SDS011;66426;51.454;7.266;2023-05-27T01:51:02;10.30;;;3.00;;
77359;SDS011;66426;51.454;7.266;2023-05-27T01:52:03;11.07;;;4.25;;
77359;SDS011;66426;51.454;7.266;2023-05-27T01:53:05;11.73;;;3.15;;
77359;SDS011;66426;51.454;7.266;2023-05-27T01:54:07;8.55;;;3.42;;
77359;SDS011;66426;51.454;7.266;2023-05-27T01:55:08;13.15;;;3.53;;
77359;SDS011;66426;51.454;7.266;2023-05-27T01:56:10;11.70;;;3.30;;
77359;SDS011;66426;51.454;7.266;2023-05-27T01:57:11;10.88;;;3.22;;
77359;SDS011;66426;51.454;7.266;2023-05-27T01:58:12;15.88;;;4.13;;
77359;SDS011;66426;51.454;7.266;2023-05-27T01:59:13;11.52;;;3.25;;
77359;SDS011;66426;51.454;7.266;2023-05-27T02:00:14;9.27;;;2.90;;
77359;SDS011;66426;51.454;7.266;2023-05-27T02:01:16;11.40;;;3.03;;
77359;SDS011;66426;51.454;7.266;2023-05-27T02:02:17;10.85;;;3.40;;
77359;SDS011;66426;51.454;7.266;2023-05-27T02:03:17;10.40;;;3.15;;
77359;SDS011;66426;51.454;7.266;2023-05-27T02:04:18;10.85;;;3.33;;
77359;SDS011;66426;51.454;7.266;2023-05-27T02:05:19;8.73;;;3.53;;
77359;SDS011;66426;51.454;7.266;2023-05-27T02:06:20;11.98;;;3.22;;
77359;SDS011;66426;51.454;7.266;2023-05-27T02:07:21;15.32;;;3.72;;
77359;SDS011;66426;51.454;7.266;2023-05-27T02:08:23;15.55;;;3.70;;
77359;SDS011;66426;51.454;7.266;2023-05-27T02:09:25;15.55;;;3.90;;
77359;SDS011;66426;51.454;7.266;2023-05-27T02:10:26;13.75;;;3.60;;
77359;SDS011;66426;51.454;7.266;2023-05-27T02:11:27;17.63;;;3.70;;
77359;SDS011;66426;51.454;7.266;2023-05-27T02:12:28;10.43;;;3.85;;
77359;SDS011;66426;51.454;7.266;2023-05-27T02:13:28;11.73;;;3.13;;
77359;SDS011;66426;51.454;7.266;2023-05-27T02:14:29;11.77;;;3.63;;
77359;SDS011;66426;51.454;7.266;2023-05-27T02:15:31;15.80;;;4.55;;
77359;SDS011;66426;51.454;7.266;2023-05-27T02:16:32;11.05;;;3.63;;
77359;SDS011;66426;51.454;7.266;2023-05-27T02:17:34;13.35;;;3.42;;
77359;SDS011;66426;51.454;7.266;2023-05-27T02:18:35;9.57;;;3.33;;
77359;SDS011;66426;51.454;7.266;2023-05-27T02:19:36;12.35;;;3.40;;
77359;SDS011;66426;51.454;7.266;2023-05-27T02:20:37;14.05;;;3.30;;
77359;SDS011;66426;51.454;7.266;2023-05-27T02:21:37;15.00;;;3.75;;
77359;SDS011;66426;51.454;7.266;2023-05-27T02:22:38;14.23;;;3.75;;
77359;SDS011;66426;51.454;7.266;2023-05-27T02:23:39;15.90;;;3.65;;
77359;SDS011;66426;51.454;7.266;2023-05-27T02:24:41;12.35;;;3.70;;
77359;SDS011;66426;51.454;7.266;2023-05-27T02:25:42;7.10;;;3.13;;
77359;SDS011;66426;51.454;7.266;2023-05-27T02:26:43;12.10;;;3.60;;
77359;SDS011;66426;51.454;7.266;2023-05-27T02:27:44;10.73;;;3.35;;
77359;SDS011;66426;51.454;7.266;2023-05-27T02:28:48;7.90;;;3.13;;
77359;SDS011;66426;51.454;7.266;2023-05-27T02:29:49;14.85;;;3.95;;
77359;SDS011;66426;51.454;7.266;2023-05-27T02:30:50;11.55;;;3.50;;
77359;SDS011;66426;51.454;7.266;2023-05-27T02:31:51;11.27;;;3.40;;
77359;SDS011;66426;51.454;7.266;2023-05-27T02:32:52;11.32;;;3.20;;
77359;SDS011;66426;51.454;7.266;2023-05-27T02:33:53;12.05;;;3.78;;
77359;SDS011;66426;51.454;7.266;2023-05-27T02:34:53;11.43;;;4.13;;
77359;SDS011;66426;51.454;7.266;2023-05-27T02:35:54;11.45;;;3.50;;
77359;SDS011;66426;51.454;7.266;2023-05-27T02:36:55;9.88;;;3.60;;
77359;SDS011;66426;51.454;7.266;2023-05-27T02:37:57;9.45;;;3.15;;
77359;SDS011;66426;51.454;7.266;2023-05-27T02:38:57;11.48;;;3.28;;
77359;SDS011;66426;51.454;7.266;2023-05-27T02:40:00;10.13;;;3.72;;
77359;SDS011;66426;51.454;7.266;2023-05-27T02:41:01;8.23;;;3.22;;
77359;SDS011;66426;51.454;7.266;2023-05-27T02:42:02;9.93;;;3.70;;
77359;SDS011;66426;51.454;7.266;2023-05-27T02:43:03;15.30;;;3.78;;
77359;SDS011;66426;51.454;7.266;2023-05-27T02:44:04;15.25;;;3.80;;
77359;SDS011;66426;51.454;7.266;2023-05-27T02:45:06;10.07;;;4.45;;
77359;SDS011;66426;51.454;7.266;2023-05-27T02:46:08;11.75;;;4.03;;
77359;SDS011;66426;51.454;7.266;2023-05-27T02:47:09;11.00;;;3.13;;
77359;SDS011;66426;51.454;7.266;2023-05-27T02:48:10;14.40;;;3.65;;
77359;SDS011;66426;51.454;7.266;2023-05-27T02:49:10;11.52;;;3.75;;
77359;SDS011;66426;51.454;7.266;2023-05-27T02:50:11;12.20;;;3.35;;
77359;SDS011;66426;51.454;7.266;2023-05-27T02:51:12;16.23;;;3.72;;
77359;SDS011;66426;51.454;7.266;2023-05-27T02:52:13;11.40;;;3.75;;
77359;SDS011;66426;51.454;7.266;2023-05-27T02:53:14;9.68;;;3.92;;
77359;SDS011;66426;51.454;7.266;2023-05-27T02:54:15;10.23;;;3.45;;
77359;SDS011;66426;51.454;7.266;2023-05-27T02:55:17;12.02;;;3.28;;
77359;SDS011;66426;51.454;7.266;2023-05-27T02:56:18;16.23;;;3.47;;
77359;SDS011;66426;51.454;7.266;2023-05-27T02:57:19;13.20;;;4.25;;
77359;SDS011;66426;51.454;7.266;2023-05-27T02:58:20;13.73;;;4.07;;
77359;SDS011;66426;51.454;7.266;2023-05-27T02:59:21;13.70;;;3.60;;
77359;SDS011;66426;51.454;7.266;2023-05-27T03:00:22;10.60;;;3.40;;
77359;SDS011;66426;51.454;7.266;2023-05-27T03:01:23;16.77;;;3.90;;
77359;SDS011;66426;51.454;7.266;2023-05-27T03:02:24;9.00;;;3.53;;
77359;SDS011;66426;51.454;7.266;2023-05-27T03:03:25;12.30;;;3.40;;
77359;SDS011;66426;51.454;7.266;2023-05-27T03:04:26;15.10;;;4.03;;
77359;SDS011;66426;51.454;7.266;2023-05-27T03:05:27;10.88;;;3.30;;
77359;SDS011;66426;51.454;7.266;2023-05-27T03:06:27;10.93;;;3.38;;
77359;SDS011;66426;51.454;7.266;2023-05-27T03:07:28;9.38;;;3.22;;
77359;SDS011;66426;51.454;7.266;2023-05-27T03:08:29;13.15;;;3.80;;
77359;SDS011;66426;51.454;7.266;2023-05-27T03:09:31;10.52;;;3.45;;
77359;SDS011;66426;51.454;7.266;2023-05-27T03:10:33;12.73;;;3.88;;
77359;SDS011;66426;51.454;7.266;2023-05-27T03:11:34;12.07;;;3.67;;
77359;SDS011;66426;51.454;7.266;2023-05-27T03:12:35;12.95;;;3.78;;
77359;SDS011;66426;51.454;7.266;2023-05-27T03:13:36;9.30;;;3.13;;
77359;SDS011;66426;51.454;7.266;2023-05-27T03:14:37;10.88;;;3.90;;
77359;SDS011;66426;51.454;7.266;2023-05-27T03:15:38;11.52;;;3.60;;
77359;SDS011;66426;51.454;7.266;2023-05-27T03:16:39;16.35;;;4.07;;
77359;SDS011;66426;51.454;7.266;2023-05-27T03:17:40;15.07;;;3.40;;
77359;SDS011;66426;51.454;7.266;2023-05-27T03:18:41;13.57;;;3.75;;
77359;SDS011;66426;51.454;7.266;2023-05-27T03:19:41;11.18;;;3.30;;
77359;SDS011;66426;51.454;7.266;2023-05-27T03:20:42;13.43;;;3.85;;
77359;SDS011;66426;51.454;7.266;2023-05-27T03:21:43;10.48;;;3.15;;
77359;SDS011;66426;51.454;7.266;2023-05-27T03:22:44;8.10;;;3.13;;
77359;SDS011;66426;51.454;7.266;2023-05-27T03:23:45;11.80;;;3.50;;
77359;SDS011;66426;51.454;7.266;2023-05-27T03:24:46;9.20;;;3.13;;
77359;SDS011;66426;51.454;7.266;2023-05-27T03:25:49;10.85;;;4.20;;
77359;SDS011;66426;51.454;7.266;2023-05-27T03:26:50;11.77;;;4.03;;
77359;SDS011;66426;51.454;7.266;2023-05-27T03:27:51;11.98;;;3.72;;
77359;SDS011;66426;51.454;7.266;2023-05-27T03:28:53;20.05;;;4.10;;
77359;SDS011;66426;51.454;7.266;2023-05-27T03:29:54;16.17;;;3.92;;
77359;SDS011;66426;51.454;7.266;2023-05-27T03:30:55;14.15;;;3.92;;
77359;SDS011;66426;51.454;7.266;2023-05-27T03:31:56;12.43;;;3.40;;
77359;SDS011;66426;51.454;7.266;2023-05-27T03:32:57;10.43;;;3.70;;
77359;SDS011;66426;51.454;7.266;2023-05-27T03:33:58;12.05;;;4.32;;
77359;SDS011;66426;51.454;7.266;2023-05-27T03:34:59;18.17;;;4.32;;
77359;SDS011;66426;51.454;7.266;2023-05-27T03:36:01;14.30;;;3.42;;
77359;SDS011;66426;51.454;7.266;2023-05-27T03:37:01;13.20;;;3.78;;
77359;SDS011;66426;51.454;7.266;2023-05-27T03:38:02;10.70;;;4.00;;
77359;SDS011;66426;51.454;7.266;2023-05-27T03:39:03;10.35;;;4.22;;
77359;SDS011;66426;51.454;7.266;2023-05-27T03:40:04;13.45;;;4.00;;
77359;SDS011;66426;51.454;7.266;2023-05-27T03:41:07;11.10;;;3.45;;
77359;SDS011;66426;51.454;7.266;2023-05-27T03:42:09;8.27;;;3.22;;
77359;SDS011;66426;51.454;7.266;2023-05-27T03:43:10;14.13;;;3.80;;
77359;SDS011;66426;51.454;7.266;2023-05-27T03:44:11;11.73;;;3.70;;
77359;SDS011;66426;51.454;7.266;2023-05-27T03:45:12;13.02;;;3.60;;
77359;SDS011;66426;51.454;7.266;2023-05-27T03:46:13;17.23;;;3.90;;
77359;SDS011;66426;51.454;7.266;2023-05-27T03:47:14;13.95;;;4.32;;
77359;SDS011;66426;51.454;7.266;2023-05-27T03:48:18;12.15;;;4.20;;
77359;SDS011;66426;51.454;7.266;2023-05-27T03:49:18;13.55;;;3.97;;
77359;SDS011;66426;51.454;7.266;2023-05-27T03:50:19;9.07;;;3.47;;
77359;SDS011;66426;51.454;7.266;2023-05-27T03:51:20;11.45;;;3.65;;
77359;SDS011;66426;51.454;7.266;2023-05-27T03:52:22;16.20;;;3.58;;
77359;SDS011;66426;51.454;7.266;2023-05-27T03:53:23;13.70;;;3.60;;
77359;SDS011;66426;51.454;7.266;2023-05-27T03:54:23;13.80;;;4.43;;
77359;SDS011;66426;51.454;7.266;2023-05-27T03:55:25;12.55;;;3.60;;
77359;SDS011;66426;51.454;7.266;2023-05-27T03:56:27;10.40;;;3.53;;
77359;SDS011;66426;51.454;7.266;2023-05-27T03:57:28;13.05;;;3.47;;
77359;SDS011;66426;51.454;7.266;2023-05-27T03:58:29;12.82;;;3.95;;
77359;SDS011;66426;51.454;7.266;2023-05-27T03:59:30;9.50;;;4.43;;
77359;SDS011;66426;51.454;7.266;2023-05-27T04:00:31;12.07;;;3.97;;
77359;SDS011;66426;51.454;7.266;2023-05-27T04:01:32;11.23;;;3.80;;
77359;SDS011;66426;51.454;7.266;2023-05-27T04:02:33;9.15;;;3.85;;
77359;SDS011;66426;51.454;7.266;2023-05-27T04:03:34;9.27;;;4.38;;
77359;SDS011;66426;51.454;7.266;2023-05-27T04:04:35;13.52;;;4.57;;
77359;SDS011;66426;51.454;7.266;2023-05-27T04:05:35;12.38;;;3.80;;
77359;SDS011;66426;51.454;7.266;2023-05-27T04:06:36;12.02;;;4.25;;
77359;SDS011;66426;51.454;7.266;2023-05-27T04:07:37;17.33;;;4.38;;
77359;SDS011;66426;51.454;7.266;2023-05-27T04:08:38;16.65;;;4.30;;
77359;SDS011;66426;51.454;7.266;2023-05-27T04:09:41;8.73;;;3.80;;
77359;SDS011;66426;51.454;7.266;2023-05-27T04:10:42;13.80;;;3.88;;
77359;SDS011;66426;51.454;7.266;2023-05-27T04:11:44;13.88;;;4.20;;
77359;SDS011;66426;51.454;7.266;2023-05-27T04:12:45;13.00;;;4.75;;
77359;SDS011;66426;51.454;7.266;2023-05-27T04:13:46;13.02;;;4.25;;
77359;SDS011;66426;51.454;7.266;2023-05-27T04:14:49;9.73;;;3.90;;
77359;SDS011;66426;51.454;7.266;2023-05-27T04:15:50;11.45;;;3.55;;
77359;SDS011;66426;51.454;7.266;2023-05-27T04:16:51;14.07;;;3.55;;
77359;SDS011;66426;51.454;7.266;2023-05-27T04:17:52;15.35;;;4.35;;
77359;SDS011;66426;51.454;7.266;2023-05-27T04:18:53;13.98;;;4.40;;
77359;SDS011;66426;51.454;7.266;2023-05-27T04:19:54;13.82;;;4.30;;
77359;SDS011;66426;51.454;7.266;2023-05-27T04:20:56;20.90;;;4.60;;
77359;SDS011;66426;51.454;7.266;2023-05-27T04:21:58;13.38;;;4.13;;
77359;SDS011;66426;51.454;7.266;2023-05-27T04:22:59;13.80;;;4.03;;
77359;SDS011;66426;51.454;7.266;2023-05-27T04:24:01;10.45;;;4.72;;
77359;SDS011;66426;51.454;7.266;2023-05-27T04:25:03;13.55;;;3.80;;
77359;SDS011;66426;51.454;7.266;2023-05-27T04:26:04;12.77;;;3.72;;
77359;SDS011;66426;51.454;7.266;2023-05-27T04:27:06;11.52;;;4.43;;
77359;SDS011;66426;51.454;7.266;2023-05-27T04:28:08;12.10;;;4.18;;
77359;SDS011;66426;51.454;7.266;2023-05-27T04:29:09;10.73;;;4.05;;
77359;SDS011;66426;51.454;7.266;2023-05-27T04:30:12;10.25;;;3.47;;
77359;SDS011;66426;51.454;7.266;2023-05-27T04:31:13;12.15;;;4.35;;
77359;SDS011;66426;51.454;7.266;2023-05-27T04:32:16;11.82;;;4.00;;
77359;SDS011;66426;51.454;7.266;2023-05-27T04:33:17;7.85;;;3.28;;
77359;SDS011;66426;51.454;7.266;2023-05-27T04:34:19;11.60;;;4.10;;
77359;SDS011;66426;51.454;7.266;2023-05-27T04:35:20;13.38;;;3.92;;
77359;SDS011;66426;51.454;7.266;2023-05-27T04:36:22;14.35;;;3.92;;
77359;SDS011;66426;51.454;7.266;2023-05-27T04:37:25;8.88;;;3.53;;
77359;SDS011;66426;51.454;7.266;2023-05-27T04:38:28;13.90;;;3.72;;
77359;SDS011;66426;51.454;7.266;2023-05-27T04:39:31;8.73;;;3.63;;
77359;SDS011;66426;51.454;7.266;2023-05-27T04:40:32;13.65;;;3.85;;
77359;SDS011;66426;51.454;7.266;2023-05-27T04:41:34;9.30;;;3.58;;
77359;SDS011;66426;51.454;7.266;2023-05-27T04:42:36;10.20;;;3.65;;
77359;SDS011;66426;51.454;7.266;2023-05-27T04:43:37;12.75;;;4.03;;
77359;SDS011;66426;51.454;7.266;2023-05-27T04:44:38;15.05;;;4.47;;
77359;SDS011;66426;51.454;7.266;2023-05-27T04:45:41;13.75;;;4.55;;
77359;SDS011;66426;51.454;7.266;2023-05-27T04:46:43;15.65;;;4.53;;
77359;SDS011;66426;51.454;7.266;2023-05-27T04:47:44;10.80;;;3.33;;
77359;SDS011;66426;51.454;7.266;2023-05-27T04:48:45;12.93;;;4.40;;
77359;SDS011;66426;51.454;7.266;2023-05-27T04:49:46;11.88;;;4.32;;
77359;SDS011;66426;51.454;7.266;2023-05-27T04:50:47;11.68;;;4.43;;
77359;SDS011;66426;51.454;7.266;2023-05-27T04:51:49;12.48;;;4.65;;
77359;SDS011;66426;51.454;7.266;2023-05-27T04:52:50;14.60;;;4.10;;
77359;SDS011;66426;51.454;7.266;2023-05-27T04:53:51;12.82;;;3.88;;
77359;SDS011;66426;51.454;7.266;2023-05-27T04:54:52;12.50;;;4.57;;
77359;SDS011;66426;51.454;7.266;2023-05-27T04:55:55;11.90;;;3.47;;
77359;SDS011;66426;51.454;7.266;2023-05-27T04:56:56;11.63;;;3.88;;
77359;SDS011;66426;51.454;7.266;2023-05-27T04:57:58;13.23;;;4.60;;
77359;SDS011;66426;51.454;7.266;2023-05-27T04:58:59;13.88;;;4.25;;
77359;SDS011;66426;51.454;7.266;2023-05-27T05:00:00;14.40;;;4.32;;
77359;SDS011;66426;51.454;7.266;2023-05-27T05:01:04;9.85;;;3.90;;
77359;SDS011;66426;51.454;7.266;2023-05-27T05:02:05;11.50;;;4.03;;
77359;SDS011;66426;51.454;7.266;2023-05-27T05:03:22;11.15;;;3.90;;
77359;SDS011;66426;51.454;7.266;2023-05-27T05:04:36;13.10;;;3.70;;
77359;SDS011;66426;51.454;7.266;2023-05-27T05:05:38;12.00;;;3.92;;
77359;SDS011;66426;51.454;7.266;2023-05-27T05:06:39;11.70;;;3.58;;
77359;SDS011;66426;51.454;7.266;2023-05-27T05:07:41;10.73;;;4.47;;
77359;SDS011;66426;51.454;7.266;2023-05-27T05:08:42;14.13;;;4.22;;
77359;SDS011;66426;51.454;7.266;2023-05-27T05:09:43;14.27;;;4.65;;
77359;SDS011;66426;51.454;7.266;2023-05-27T05:10:45;8.82;;;4.47;;
77359;SDS011;66426;51.454;7.266;2023-05-27T05:11:46;13.32;;;4.32;;
77359;SDS011;66426;51.454;7.266;2023-05-27T05:12:48;10.57;;;4.00;;
77359;SDS011;66426;51.454;7.266;2023-05-27T05:13:50;11.15;;;4.13;;
77359;SDS011;66426;51.454;7.266;2023-05-27T05:14:51;12.35;;;3.92;;
77359;SDS011;66426;51.454;7.266;2023-05-27T05:15:52;16.27;;;4.15;;
77359;SDS011;66426;51.454;7.266;2023-05-27T05:16:53;14.70;;;4.63;;
77359;SDS011;66426;51.454;7.266;2023-05-27T05:17:54;13.23;;;4.30;;
77359;SDS011;66426;51.454;7.266;2023-05-27T05:18:55;13.43;;;4.65;;
77359;SDS011;66426;51.454;7.266;2023-05-27T05:19:57;16.58;;;5.18;;
77359;SDS011;66426;51.454;7.266;2023-05-27T05:20:58;10.88;;;4.35;;
77359;SDS011;66426;51.454;7.266;2023-05-27T05:21:59;13.43;;;4.88;;
77359;SDS011;66426;51.454;7.266;2023-05-27T05:23:00;14.45;;;4.93;;
77359;SDS011;66426;51.454;7.266;2023-05-27T05:24:00;17.35;;;4.72;;
77359;SDS011;66426;51.454;7.266;2023-05-27T05:25:01;13.85;;;4.90;;
77359;SDS011;66426;51.454;7.266;2023-05-27T05:26:04;11.68;;;4.55;;
77359;SDS011;66426;51.454;7.266;2023-05-27T05:27:06;15.38;;;4.80;;
77359;SDS011;66426;51.454;7.266;2023-05-27T05:28:07;15.02;;;5.00;;
77359;SDS011;66426;51.454;7.266;2023-05-27T05:29:10;13.90;;;4.72;;
77359;SDS011;66426;51.454;7.266;2023-05-27T05:30:11;10.90;;;4.97;;
77359;SDS011;66426;51.454;7.266;2023-05-27T05:31:12;13.52;;;5.20;;
77359;SDS011;66426;51.454;7.266;2023-05-27T05:32:13;12.25;;;4.90;;
77359;SDS011;66426;51.454;7.266;2023-05-27T05:33:14;17.00;;;4.82;;
77359;SDS011;66426;51.454;7.266;2023-05-27T05:34:15;11.55;;;4.22;;
77359;SDS011;66426;51.454;7.266;2023-05-27T05:35:16;12.70;;;4.80;;
77359;SDS011;66426;51.454;7.266;2023-05-27T05:36:17;11.60;;;4.13;;
77359;SDS011;66426;51.454;7.266;2023-05-27T05:37:17;11.35;;;5.30;;
77359;SDS011;66426;51.454;7.266;2023-05-27T05:38:18;11.00;;;4.45;;
77359;SDS011;66426;51.454;7.266;2023-05-27T05:39:19;13.20;;;5.35;;
77359;SDS011;66426;51.454;7.266;2023-05-27T05:40:23;12.50;;;5.38;;
77359;SDS011;66426;51.454;7.266;2023-05-27T05:41:24;16.40;;;4.72;;
77359;SDS011;66426;51.454;7.266;2023-05-27T05:42:26;12.07;;;3.85;;
77359;SDS011;66426;51.454;7.266;2023-05-27T05:43:26;13.18;;;4.50;;
77359;SDS011;66426;51.454;7.266;2023-05-27T05:44:29;13.85;;;5.03;;
77359;SDS011;66426;51.454;7.266;2023-05-27T05:45:30;12.40;;;4.53;;
77359;SDS011;66426;51.454;7.266;2023-05-27T05:46:31;12.73;;;4.80;;
77359;SDS011;66426;51.454;7.266;2023-05-27T05:47:32;12.98;;;4.57;;
77359;SDS011;66426;51.454;7.266;2023-05-27T05:48:33;10.90;;;4.72;;
77359;SDS011;66426;51.454;7.266;2023-05-27T05:49:34;13.35;;;4.50;;
77359;SDS011;66426;51.454;7.266;2023-05-27T05:50:35;13.32;;;4.40;;
77359;SDS011;66426;51.454;7.266;2023-05-27T05:51:36;12.52;;;4.30;;
77359;SDS011;66426;51.454;7.266;2023-05-27T05:52:37;14.93;;;4.72;;
77359;SDS011;66426;51.454;7.266;2023-05-27T05:53:39;21.00;;;5.10;;
77359;SDS011;66426;51.454;7.266;2023-05-27T05:54:40;12.77;;;4.25;;
77359;SDS011;66426;51.454;7.266;2023-05-27T05:55:41;15.00;;;4.20;;
77359;SDS011;66426;51.454;7.266;2023-05-27T05:56:42;17.88;;;4.97;;
77359;SDS011;66426;51.454;7.266;2023-05-27T05:57:43;11.93;;;4.30;;
77359;SDS011;66426;51.454;7.266;2023-05-27T05:58:43;14.57;;;4.38;;
77359;SDS011;66426;51.454;7.266;2023-05-27T05:59:46;13.40;;;4.55;;
77359;SDS011;66426;51.454;7.266;2023-05-27T06:00:47;11.90;;;4.50;;
77359;SDS011;66426;51.454;7.266;2023-05-27T06:01:47;12.15;;;4.40;;
77359;SDS011;66426;51.454;7.266;2023-05-27T06:02:48;13.00;;;4.55;;
77359;SDS011;66426;51.454;7.266;2023-05-27T06:03:49;10.65;;;4.55;;
77359;SDS011;66426;51.454;7.266;2023-05-27T06:04:50;13.15;;;5.00;;
77359;SDS011;66426;51.454;7.266;2023-05-27T06:05:51;8.50;;;4.43;;
77359;SDS011;66426;51.454;7.266;2023-05-27T06:06:52;13.55;;;4.53;;